sensor_id;sensor_type;location;lat;lon;timestamp;pressure;altitude;pressure_sealevel;temperature;humidity
43488;BME280;29078;41.932;25.554;2023-04-04T00:00:30;98225.47;;;12.31;73.35
43488;BME280;29078;41.932;25.554;2023-04-04T00:02:55;98280.41;;;12.72;73.26
43488;BME280;29078;41.932;25.554;2023-04-04T00:05:20;98327.59;;;13.12;73.19
43488;BME280;29078;41.932;25.554;2023-04-04T00:07:46;98341.44;;;13.14;73.18
43488;BME280;29078;41.932;25.554;2023-04-04T00:10:12;98342.81;;;13.16;73.30
43488;BME280;29078;41.932;25.554;2023-04-04T00:12:37;98284.28;;;12.88;73.22
43488;BME280;29078;41.932;25.554;2023-04-04T00:15:03;98326.28;;;13.21;73.06
43488;BME280;29078;41.932;25.554;2023-04-04T00:17:29;98326.50;;;13.19;72.91
43488;BME280;29078;41.932;25.554;2023-04-04T00:19:54;98229.94;;;12.49;73.25
43488;BME280;29078;41.932;25.554;2023-04-04T00:22:21;98286.19;;;12.99;73.24
43488;BME280;29078;41.932;25.554;2023-04-04T00:24:46;98178.06;;;12.29;73.40
43488;BME280;29078;41.932;25.554;2023-04-04T00:27:13;98262.88;;;12.89;73.01
43488;BME280;29078;41.932;25.554;2023-04-04T00:29:38;98185.03;;;12.42;73.35
43488;BME280;29078;41.932;25.554;2023-04-04T00:32:04;98284.47;;;13.04;73.43
43488;BME280;29078;41.932;25.554;2023-04-04T00:34:29;98203.63;;;12.54;73.34
43488;BME280;29078;41.932;25.554;2023-04-04T00:36:55;98203.03;;;12.52;73.02
43488;BME280;29078;41.932;25.554;2023-04-04T00:39:20;98271.41;;;12.91;73.02
43488;BME280;29078;41.932;25.554;2023-04-04T00:41:48;98310.06;;;13.11;73.16
43488;BME280;29078;41.932;25.554;2023-04-04T00:44:13;98248.50;;;12.67;73.22
43488;BME280;29078;41.932;25.554;2023-04-04T00:46:39;98348.06;;;13.23;73.09
43488;BME280;29078;41.932;25.554;2023-04-04T00:49:05;98312.31;;;12.95;73.15
43488;BME280;29078;41.932;25.554;2023-04-04T00:51:30;98209.09;;;12.22;73.26
43488;BME280;29078;41.932;25.554;2023-04-04T00:53:56;98349.47;;;13.07;73.56
43488;BME280;29078;41.932;25.554;2023-04-04T00:56:22;98350.84;;;13.10;73.57
43488;BME280;29078;41.932;25.554;2023-04-04T00:58:49;98350.50;;;13.06;73.90
43488;BME280;29078;41.932;25.554;2023-04-04T01:01:14;98347.13;;;12.99;74.19
43488;BME280;29078;41.932;25.554;2023-04-04T01:03:41;98215.19;;;12.23;74.23
43488;BME280;29078;41.932;25.554;2023-04-04T01:06:07;98191.53;;;12.09;74.07
43488;BME280;29078;41.932;25.554;2023-04-04T01:08:35;98308.94;;;12.88;73.90
43488;BME280;29078;41.932;25.554;2023-04-04T01:11:02;98294.75;;;12.83;74.03
43488;BME280;29078;41.932;25.554;2023-04-04T01:13:28;98269.91;;;12.65;74.19
43488;BME280;29078;41.932;25.554;2023-04-04T01:15:54;98321.00;;;13.02;74.07
43488;BME280;29078;41.932;25.554;2023-04-04T01:18:21;98243.66;;;12.64;73.92
43488;BME280;29078;41.932;25.554;2023-04-04T01:21:00;98285.47;;;12.92;74.02
43488;BME280;29078;41.932;25.554;2023-04-04T01:23:46;98296.91;;;13.04;73.81
43488;BME280;29078;41.932;25.554;2023-04-04T01:26:14;98255.38;;;12.86;74.05
43488;BME280;29078;41.932;25.554;2023-04-04T01:28:39;98293.81;;;13.07;74.16
43488;BME280;29078;41.932;25.554;2023-04-04T01:31:06;98285.41;;;13.10;74.18
43488;BME280;29078;41.932;25.554;2023-04-04T01:33:38;98275.50;;;13.05;73.95
43488;BME280;29078;41.932;25.554;2023-04-04T01:36:26;98275.94;;;13.02;74.01
43488;BME280;29078;41.932;25.554;2023-04-04T01:39:06;98193.88;;;12.36;73.97
43488;BME280;29078;41.932;25.554;2023-04-04T01:41:34;98282.41;;;13.07;74.09
43488;BME280;29078;41.932;25.554;2023-04-04T01:44:00;98272.34;;;12.97;74.41
43488;BME280;29078;41.932;25.554;2023-04-04T01:46:26;98287.47;;;13.08;74.25
43488;BME280;29078;41.932;25.554;2023-04-04T01:48:51;98287.13;;;13.04;74.03
43488;BME280;29078;41.932;25.554;2023-04-04T01:51:17;98295.97;;;12.98;74.27
43488;BME280;29078;41.932;25.554;2023-04-04T01:53:43;98115.22;;;11.88;74.17
43488;BME280;29078;41.932;25.554;2023-04-04T01:56:09;98270.81;;;12.89;74.34
43488;BME280;29078;41.932;25.554;2023-04-04T01:58:34;98268.97;;;12.90;74.43
43488;BME280;29078;41.932;25.554;2023-04-04T02:00:59;98272.44;;;12.90;74.50
43488;BME280;29078;41.932;25.554;2023-04-04T02:03:25;98231.72;;;12.55;74.59
43488;BME280;29078;41.932;25.554;2023-04-04T02:05:51;98115.09;;;11.83;74.58
43488;BME280;29078;41.932;25.554;2023-04-04T02:08:16;98251.94;;;12.67;74.71
43488;BME280;29078;41.932;25.554;2023-04-04T02:10:42;98110.88;;;11.75;74.72
43488;BME280;29078;41.932;25.554;2023-04-04T02:13:07;98223.91;;;12.60;74.31
43488;BME280;29078;41.932;25.554;2023-04-04T02:15:33;98252.59;;;12.81;74.85
43488;BME280;29078;41.932;25.554;2023-04-04T02:18:00;98239.13;;;12.83;74.76
43488;BME280;29078;41.932;25.554;2023-04-04T02:20:26;98224.25;;;12.82;75.06
43488;BME280;29078;41.932;25.554;2023-04-04T02:22:52;98214.47;;;12.82;74.57
43488;BME280;29078;41.932;25.554;2023-04-04T02:25:19;98078.75;;;11.97;74.54
43488;BME280;29078;41.932;25.554;2023-04-04T02:27:45;98223.00;;;12.84;74.86
43488;BME280;29078;41.932;25.554;2023-04-04T02:30:11;98205.91;;;12.68;74.65
43488;BME280;29078;41.932;25.554;2023-04-04T02:32:36;98129.72;;;12.22;74.35
43488;BME280;29078;41.932;25.554;2023-04-04T02:35:02;98225.91;;;12.94;74.19
43488;BME280;29078;41.932;25.554;2023-04-04T02:37:28;98214.38;;;12.89;74.44
43488;BME280;29078;41.932;25.554;2023-04-04T02:39:54;98144.25;;;12.31;73.92
43488;BME280;29078;41.932;25.554;2023-04-04T02:42:20;98208.59;;;12.80;74.32
43488;BME280;29078;41.932;25.554;2023-04-04T02:44:45;98134.56;;;12.25;74.87
43488;BME280;29078;41.932;25.554;2023-04-04T02:47:11;98190.50;;;12.77;74.86
43488;BME280;29078;41.932;25.554;2023-04-04T02:49:36;98214.84;;;12.86;74.47
43488;BME280;29078;41.932;25.554;2023-04-04T02:52:02;98054.03;;;11.85;74.42
43488;BME280;29078;41.932;25.554;2023-04-04T02:54:28;98163.22;;;12.58;74.27
43488;BME280;29078;41.932;25.554;2023-04-04T02:56:53;98216.22;;;12.88;74.35
43488;BME280;29078;41.932;25.554;2023-04-04T02:59:18;98199.84;;;12.80;74.45
43488;BME280;29078;41.932;25.554;2023-04-04T03:01:44;98066.19;;;11.92;74.51
43488;BME280;29078;41.932;25.554;2023-04-04T03:04:10;98178.25;;;12.64;74.28
43488;BME280;29078;41.932;25.554;2023-04-04T03:06:36;98077.56;;;11.93;74.51
43488;BME280;29078;41.932;25.554;2023-04-04T03:09:01;98171.19;;;12.58;74.50
43488;BME280;29078;41.932;25.554;2023-04-04T03:11:30;98059.69;;;11.88;74.22
43488;BME280;29078;41.932;25.554;2023-04-04T03:13:56;98189.78;;;12.70;74.38
43488;BME280;29078;41.932;25.554;2023-04-04T03:16:21;98215.06;;;12.84;74.60
43488;BME280;29078;41.932;25.554;2023-04-04T03:18:47;98209.72;;;12.72;74.19
43488;BME280;29078;41.932;25.554;2023-04-04T03:21:13;98102.47;;;12.03;74.71
43488;BME280;29078;41.932;25.554;2023-04-04T03:23:39;98159.88;;;12.51;74.61
43488;BME280;29078;41.932;25.554;2023-04-04T03:26:04;98189.47;;;12.60;74.63
43488;BME280;29078;41.932;25.554;2023-04-04T03:28:29;98217.94;;;12.83;74.84
43488;BME280;29078;41.932;25.554;2023-04-04T03:30:55;98158.56;;;12.42;74.97
43488;BME280;29078;41.932;25.554;2023-04-04T03:33:20;98216.75;;;12.79;74.89
43488;BME280;29078;41.932;25.554;2023-04-04T03:35:46;98196.97;;;12.63;74.65
43488;BME280;29078;41.932;25.554;2023-04-04T03:38:12;98258.84;;;12.87;74.48
43488;BME280;29078;41.932;25.554;2023-04-04T03:40:38;98109.72;;;12.08;74.42
43488;BME280;29078;41.932;25.554;2023-04-04T03:43:07;98209.81;;;12.66;74.99
43488;BME280;29078;41.932;25.554;2023-04-04T03:45:35;98162.25;;;12.41;74.49
43488;BME280;29078;41.932;25.554;2023-04-04T03:48:01;98234.91;;;12.93;74.89
43488;BME280;29078;41.932;25.554;2023-04-04T03:50:27;98226.47;;;12.85;74.56
43488;BME280;29078;41.932;25.554;2023-04-04T03:52:52;98227.63;;;12.89;74.44
43488;BME280;29078;41.932;25.554;2023-04-04T03:55:17;98214.22;;;12.72;74.71
43488;BME280;29078;41.932;25.554;2023-04-04T03:57:43;98182.66;;;12.52;74.68
43488;BME280;29078;41.932;25.554;2023-04-04T04:00:09;98240.19;;;12.93;74.68
43488;BME280;29078;41.932;25.554;2023-04-04T04:02:35;98247.91;;;12.95;74.33
43488;BME280;29078;41.932;25.554;2023-04-04T04:05:00;98219.78;;;12.82;74.40
43488;BME280;29078;41.932;25.554;2023-04-04T04:07:26;98200.03;;;12.66;74.48
43488;BME280;29078;41.932;25.554;2023-04-04T04:09:51;98232.69;;;12.90;74.46
43488;BME280;29078;41.932;25.554;2023-04-04T04:12:16;98232.56;;;12.85;73.84
43488;BME280;29078;41.932;25.554;2023-04-04T04:14:42;98248.88;;;13.00;73.92
43488;BME280;29078;41.932;25.554;2023-04-04T04:17:07;98250.13;;;12.98;74.22
43488;BME280;29078;41.932;25.554;2023-04-04T04:19:33;98251.50;;;13.00;74.48
43488;BME280;29078;41.932;25.554;2023-04-04T04:21:58;98246.22;;;13.00;74.01
43488;BME280;29078;41.932;25.554;2023-04-04T04:24:23;98244.38;;;13.01;74.39
43488;BME280;29078;41.932;25.554;2023-04-04T04:26:49;98143.06;;;12.27;74.34
43488;BME280;29078;41.932;25.554;2023-04-04T04:29:14;98252.91;;;13.03;74.15
43488;BME280;29078;41.932;25.554;2023-04-04T04:31:40;98248.41;;;13.03;74.15
43488;BME280;29078;41.932;25.554;2023-04-04T04:34:06;98242.75;;;13.00;73.87
43488;BME280;29078;41.932;25.554;2023-04-04T04:36:33;98253.72;;;13.03;73.83
43488;BME280;29078;41.932;25.554;2023-04-04T04:38:58;98223.22;;;12.83;74.23
43488;BME280;29078;41.932;25.554;2023-04-04T04:41:24;98233.16;;;12.87;74.24
43488;BME280;29078;41.932;25.554;2023-04-04T04:43:50;98077.78;;;11.91;74.13
43488;BME280;29078;41.932;25.554;2023-04-04T04:46:16;98252.78;;;12.98;74.33
43488;BME280;29078;41.932;25.554;2023-04-04T04:48:42;98200.03;;;12.66;74.05
43488;BME280;29078;41.932;25.554;2023-04-04T04:51:07;98247.34;;;12.93;74.05
43488;BME280;29078;41.932;25.554;2023-04-04T04:53:33;98243.53;;;12.89;74.40
43488;BME280;29078;41.932;25.554;2023-04-04T04:55:58;98256.44;;;12.97;74.63
43488;BME280;29078;41.932;25.554;2023-04-04T04:58:24;98124.94;;;12.13;74.02
43488;BME280;29078;41.932;25.554;2023-04-04T05:00:53;98123.56;;;12.10;74.43
43488;BME280;29078;41.932;25.554;2023-04-04T05:03:19;98230.28;;;12.89;74.57
43488;BME280;29078;41.932;25.554;2023-04-04T05:05:45;98127.06;;;12.22;74.29
43488;BME280;29078;41.932;25.554;2023-04-04T05:08:10;98255.69;;;13.08;74.17
43488;BME280;29078;41.932;25.554;2023-04-04T05:10:36;98257.88;;;13.11;74.23
43488;BME280;29078;41.932;25.554;2023-04-04T05:13:01;98237.81;;;13.03;74.17
43488;BME280;29078;41.932;25.554;2023-04-04T05:15:28;98149.50;;;12.50;73.68
43488;BME280;29078;41.932;25.554;2023-04-04T05:17:54;98236.47;;;13.13;73.83
43488;BME280;29078;41.932;25.554;2023-04-04T05:20:19;98247.69;;;13.26;73.65
43488;BME280;29078;41.932;25.554;2023-04-04T05:22:45;98221.28;;;13.20;73.40
43488;BME280;29078;41.932;25.554;2023-04-04T05:25:12;98254.06;;;13.37;73.55
43488;BME280;29078;41.932;25.554;2023-04-04T05:27:38;98124.91;;;12.61;73.29
43488;BME280;29078;41.932;25.554;2023-04-04T05:30:04;98243.47;;;13.37;73.25
43488;BME280;29078;41.932;25.554;2023-04-04T05:32:30;98250.75;;;13.42;73.06
43488;BME280;29078;41.932;25.554;2023-04-04T05:34:55;98181.34;;;12.91;73.07
43488;BME280;29078;41.932;25.554;2023-04-04T05:37:21;98270.84;;;13.49;72.94
43488;BME280;29078;41.932;25.554;2023-04-04T05:39:46;98132.28;;;12.59;72.56
43488;BME280;29078;41.932;25.554;2023-04-04T05:42:13;98151.16;;;12.62;72.83
43488;BME280;29078;41.932;25.554;2023-04-04T05:44:38;98304.28;;;13.50;73.06
43488;BME280;29078;41.932;25.554;2023-04-04T05:47:03;98146.75;;;12.75;72.63
43488;BME280;29078;41.932;25.554;2023-04-04T05:49:29;98267.72;;;13.52;72.86
43488;BME280;29078;41.932;25.554;2023-04-04T05:51:54;98244.28;;;13.38;72.65
43488;BME280;29078;41.932;25.554;2023-04-04T05:54:22;98260.09;;;13.44;72.86
43488;BME280;29078;41.932;25.554;2023-04-04T05:56:48;98259.19;;;13.50;72.69
43488;BME280;29078;41.932;25.554;2023-04-04T05:59:13;98264.97;;;13.59;72.77
43488;BME280;29078;41.932;25.554;2023-04-04T06:01:38;98211.97;;;13.29;72.44
43488;BME280;29078;41.932;25.554;2023-04-04T06:04:05;98229.19;;;13.38;72.53
43488;BME280;29078;41.932;25.554;2023-04-04T06:06:31;98285.97;;;13.60;72.47
43488;BME280;29078;41.932;25.554;2023-04-04T06:08:57;98178.38;;;13.11;72.42
43488;BME280;29078;41.932;25.554;2023-04-04T06:11:22;98226.56;;;13.38;72.20
43488;BME280;29078;41.932;25.554;2023-04-04T06:13:48;98231.06;;;13.49;72.47
43488;BME280;29078;41.932;25.554;2023-04-04T06:16:14;98117.50;;;12.81;72.26
43488;BME280;29078;41.932;25.554;2023-04-04T06:18:39;98239.38;;;13.64;72.32
43488;BME280;29078;41.932;25.554;2023-04-04T06:21:05;98251.59;;;13.65;72.12
43488;BME280;29078;41.932;25.554;2023-04-04T06:23:30;98232.56;;;13.57;72.10
43488;BME280;29078;41.932;25.554;2023-04-04T06:25:56;98062.72;;;12.52;72.12
43488;BME280;29078;41.932;25.554;2023-04-04T06:28:21;98109.34;;;12.83;72.21
43488;BME280;29078;41.932;25.554;2023-04-04T06:30:47;98242.59;;;13.66;72.60
43488;BME280;29078;41.932;25.554;2023-04-04T06:33:12;98243.75;;;13.71;72.64
43488;BME280;29078;41.932;25.554;2023-04-04T06:35:38;98245.38;;;13.72;72.51
43488;BME280;29078;41.932;25.554;2023-04-04T06:38:03;98130.78;;;12.93;72.47
43488;BME280;29078;41.932;25.554;2023-04-04T06:40:30;98188.75;;;13.43;72.42
43488;BME280;29078;41.932;25.554;2023-04-04T06:42:55;98239.97;;;13.78;72.53
43488;BME280;29078;41.932;25.554;2023-04-04T06:45:25;98117.53;;;13.04;72.29
43488;BME280;29078;41.932;25.554;2023-04-04T06:47:55;98222.66;;;13.64;72.42
43488;BME280;29078;41.932;25.554;2023-04-04T06:50:21;98247.91;;;13.78;72.34
43488;BME280;29078;41.932;25.554;2023-04-04T06:52:47;98153.66;;;13.17;72.28
43488;BME280;29078;41.932;25.554;2023-04-04T06:55:13;98222.31;;;13.72;72.28
43488;BME280;29078;41.932;25.554;2023-04-04T06:57:39;98219.31;;;13.80;72.15
43488;BME280;29078;41.932;25.554;2023-04-04T07:00:05;97990.03;;;12.24;71.98
43488;BME280;29078;41.932;25.554;2023-04-04T07:02:31;98233.38;;;14.04;71.80
43488;BME280;29078;41.932;25.554;2023-04-04T07:04:57;98232.09;;;14.07;71.69
43488;BME280;29078;41.932;25.554;2023-04-04T07:07:22;98240.56;;;14.15;71.45
43488;BME280;29078;41.932;25.554;2023-04-04T07:09:49;98187.81;;;13.84;71.15
43488;BME280;29078;41.932;25.554;2023-04-04T07:12:14;98239.84;;;14.20;71.34
43488;BME280;29078;41.932;25.554;2023-04-04T07:14:40;98133.53;;;13.51;71.22
43488;BME280;29078;41.932;25.554;2023-04-04T07:17:07;98099.50;;;13.36;70.95
43488;BME280;29078;41.932;25.554;2023-04-04T07:19:32;98215.03;;;14.26;70.91
43488;BME280;29078;41.932;25.554;2023-04-04T07:21:58;98229.66;;;14.40;70.98
43488;BME280;29078;41.932;25.554;2023-04-04T07:24:23;98085.34;;;13.54;70.52
43488;BME280;29078;41.932;25.554;2023-04-04T07:26:48;98231.16;;;14.48;70.46
43488;BME280;29078;41.932;25.554;2023-04-04T07:29:14;98233.03;;;14.47;70.33
43488;BME280;29078;41.932;25.554;2023-04-04T07:31:39;98189.88;;;14.17;70.50
43488;BME280;29078;41.932;25.554;2023-04-04T07:34:05;98225.63;;;14.38;70.44
43488;BME280;29078;41.932;25.554;2023-04-04T07:36:31;98231.63;;;14.33;70.45
43488;BME280;29078;41.932;25.554;2023-04-04T07:38:57;98106.44;;;13.49;70.76
43488;BME280;29078;41.932;25.554;2023-04-04T07:41:22;98208.31;;;14.12;70.44
43488;BME280;29078;41.932;25.554;2023-04-04T07:43:48;98232.09;;;14.30;70.23
43488;BME280;29078;41.932;25.554;2023-04-04T07:46:14;98247.22;;;14.29;70.34
43488;BME280;29078;41.932;25.554;2023-04-04T07:48:40;98246.75;;;14.32;70.64
43488;BME280;29078;41.932;25.554;2023-04-04T07:51:05;98166.25;;;13.80;70.56
43488;BME280;29078;41.932;25.554;2023-04-04T07:53:31;98091.44;;;13.55;70.23
43488;BME280;29078;41.932;25.554;2023-04-04T07:55:57;98227.81;;;14.52;70.11
43488;BME280;29078;41.932;25.554;2023-04-04T07:58:22;98102.81;;;13.79;69.77
43488;BME280;29078;41.932;25.554;2023-04-04T08:00:48;98227.44;;;14.60;69.32
43488;BME280;29078;41.932;25.554;2023-04-04T08:03:13;98239.63;;;14.73;69.50
43488;BME280;29078;41.932;25.554;2023-04-04T08:05:40;98230.84;;;14.73;69.29
43488;BME280;29078;41.932;25.554;2023-04-04T08:08:06;98231.53;;;14.80;69.09
43488;BME280;29078;41.932;25.554;2023-04-04T08:10:31;98227.16;;;14.74;69.00
43488;BME280;29078;41.932;25.554;2023-04-04T08:12:57;98208.94;;;14.66;68.75
43488;BME280;29078;41.932;25.554;2023-04-04T08:15:22;98228.28;;;14.78;68.30
43488;BME280;29078;41.932;25.554;2023-04-04T08:17:47;98228.63;;;14.81;68.38
43488;BME280;29078;41.932;25.554;2023-04-04T08:20:14;98070.56;;;13.70;67.95
43488;BME280;29078;41.932;25.554;2023-04-04T08:22:40;98242.50;;;14.83;67.95
43488;BME280;29078;41.932;25.554;2023-04-04T08:25:06;98225.16;;;14.92;67.35
43488;BME280;29078;41.932;25.554;2023-04-04T08:27:32;98237.66;;;15.09;66.93
43488;BME280;29078;41.932;25.554;2023-04-04T08:29:58;98109.56;;;14.50;65.77
43488;BME280;29078;41.932;25.554;2023-04-04T08:32:23;98123.59;;;14.62;65.76
43488;BME280;29078;41.932;25.554;2023-04-04T08:34:49;98244.31;;;15.56;65.23
43488;BME280;29078;41.932;25.554;2023-04-04T08:37:15;98223.34;;;15.72;64.68
43488;BME280;29078;41.932;25.554;2023-04-04T08:39:41;98235.13;;;16.14;64.16
43488;BME280;29078;41.932;25.554;2023-04-04T08:42:07;98224.22;;;16.16;63.52
43488;BME280;29078;41.932;25.554;2023-04-04T08:44:33;98242.25;;;16.31;62.52
43488;BME280;29078;41.932;25.554;2023-04-04T08:47:02;98238.41;;;16.21;62.51
43488;BME280;29078;41.932;25.554;2023-04-04T08:49:32;98267.47;;;16.23;62.35
43488;BME280;29078;41.932;25.554;2023-04-04T08:51:58;98256.50;;;16.19;61.93
43488;BME280;29078;41.932;25.554;2023-04-04T08:54:27;98239.16;;;16.17;61.83
43488;BME280;29078;41.932;25.554;2023-04-04T08:56:54;98256.41;;;16.70;61.01
43488;BME280;29078;41.932;25.554;2023-04-04T08:59:20;98267.72;;;16.60;59.12
43488;BME280;29078;41.932;25.554;2023-04-04T09:01:46;98267.28;;;16.46;59.08
43488;BME280;29078;41.932;25.554;2023-04-04T09:04:11;98012.19;;;14.72;59.44
43488;BME280;29078;41.932;25.554;2023-04-04T09:06:37;98256.31;;;16.26;59.61
43488;BME280;29078;41.932;25.554;2023-04-04T09:09:03;98268.81;;;16.26;59.84
43488;BME280;29078;41.932;25.554;2023-04-04T09:11:32;98256.44;;;16.14;60.16
43488;BME280;29078;41.932;25.554;2023-04-04T09:13:59;98197.28;;;15.74;60.23
43488;BME280;29078;41.932;25.554;2023-04-04T09:16:26;98220.91;;;15.87;60.53
43488;BME280;29078;41.932;25.554;2023-04-04T09:18:52;98208.56;;;15.81;60.01
43488;BME280;29078;41.932;25.554;2023-04-04T09:21:18;98256.81;;;16.23;59.80
43488;BME280;29078;41.932;25.554;2023-04-04T09:23:44;98151.63;;;15.48;60.15
43488;BME280;29078;41.932;25.554;2023-04-04T09:26:10;98212.31;;;16.02;59.91
43488;BME280;29078;41.932;25.554;2023-04-04T09:28:37;98240.91;;;16.28;60.17
43488;BME280;29078;41.932;25.554;2023-04-04T09:31:05;98271.47;;;16.42;60.02
43488;BME280;29078;41.932;25.554;2023-04-04T09:33:32;98264.28;;;16.43;59.77
43488;BME280;29078;41.932;25.554;2023-04-04T09:36:01;98258.16;;;16.42;59.95
43488;BME280;29078;41.932;25.554;2023-04-04T09:38:28;98143.19;;;15.68;59.93
43488;BME280;29078;41.932;25.554;2023-04-04T09:40:55;98252.84;;;16.64;59.76
43488;BME280;29078;41.932;25.554;2023-04-04T09:43:24;98248.94;;;16.94;59.11
43488;BME280;29078;41.932;25.554;2023-04-04T09:45:50;98233.97;;;16.93;58.88
43488;BME280;29078;41.932;25.554;2023-04-04T09:48:32;98244.88;;;17.13;58.58
43488;BME280;29078;41.932;25.554;2023-04-04T09:50:59;98250.47;;;17.11;58.61
43488;BME280;29078;41.932;25.554;2023-04-04T09:53:25;98137.47;;;16.42;58.37
43488;BME280;29078;41.932;25.554;2023-04-04T09:55:55;98249.69;;;17.43;57.95
43488;BME280;29078;41.932;25.554;2023-04-04T09:58:26;98252.59;;;17.68;57.34
43488;BME280;29078;41.932;25.554;2023-04-04T10:00:58;98253.22;;;17.81;56.93
43488;BME280;29078;41.932;25.554;2023-04-04T10:03:24;98241.72;;;17.75;57.14
43488;BME280;29078;41.932;25.554;2023-04-04T10:05:55;98250.56;;;17.81;56.99
43488;BME280;29078;41.932;25.554;2023-04-04T10:08:23;98209.56;;;17.97;56.46
43488;BME280;29078;41.932;25.554;2023-04-04T10:10:59;98172.19;;;17.65;56.26
43488;BME280;29078;41.932;25.554;2023-04-04T10:13:26;98183.22;;;17.73;56.04
43488;BME280;29078;41.932;25.554;2023-04-04T10:15:54;98246.31;;;18.22;55.94
43488;BME280;29078;41.932;25.554;2023-04-04T10:18:24;98127.66;;;17.28;55.73
43488;BME280;29078;41.932;25.554;2023-04-04T10:20:52;98225.50;;;17.55;56.25
43488;BME280;29078;41.932;25.554;2023-04-04T10:23:18;98241.13;;;17.68;56.85
43488;BME280;29078;41.932;25.554;2023-04-04T10:25:44;98237.78;;;17.56;57.08
43488;BME280;29078;41.932;25.554;2023-04-04T10:28:11;98233.38;;;17.39;57.10
43488;BME280;29078;41.932;25.554;2023-04-04T10:30:41;98147.63;;;16.67;57.46
43488;BME280;29078;41.932;25.554;2023-04-04T10:33:09;98231.72;;;17.33;57.58
43488;BME280;29078;41.932;25.554;2023-04-04T10:35:43;98220.94;;;17.18;57.69
43488;BME280;29078;41.932;25.554;2023-04-04T10:38:11;98233.84;;;17.31;57.92
43488;BME280;29078;41.932;25.554;2023-04-04T10:40:38;98229.91;;;17.39;57.65
43488;BME280;29078;41.932;25.554;2023-04-04T10:43:06;98228.91;;;17.45;57.33
43488;BME280;29078;41.932;25.554;2023-04-04T10:45:36;98227.19;;;17.66;56.60
43488;BME280;29078;41.932;25.554;2023-04-04T10:48:06;98115.91;;;16.97;56.36
43488;BME280;29078;41.932;25.554;2023-04-04T10:50:34;98205.44;;;17.79;56.19
43488;BME280;29078;41.932;25.554;2023-04-04T10:53:00;98224.56;;;18.03;55.98
43488;BME280;29078;41.932;25.554;2023-04-04T10:55:28;98156.28;;;17.38;56.10
43488;BME280;29078;41.932;25.554;2023-04-04T10:57:54;98232.19;;;17.84;56.29
43488;BME280;29078;41.932;25.554;2023-04-04T11:00:21;98209.28;;;17.61;56.83
43488;BME280;29078;41.932;25.554;2023-04-04T11:02:56;98222.59;;;17.56;56.83
43488;BME280;29078;41.932;25.554;2023-04-04T11:08:03;98222.44;;;17.68;56.10
43488;BME280;29078;41.932;25.554;2023-04-04T11:12:57;98217.47;;;17.50;56.79
43488;BME280;29078;41.932;25.554;2023-04-04T11:18:20;98216.94;;;17.21;57.69
43488;BME280;29078;41.932;25.554;2023-04-04T11:20:47;98196.47;;;16.99;57.62
43488;BME280;29078;41.932;25.554;2023-04-04T11:23:16;98220.63;;;17.14;57.92
43488;BME280;29078;41.932;25.554;2023-04-04T11:25:55;98108.13;;;16.15;58.22
43488;BME280;29078;41.932;25.554;2023-04-04T11:34:11;98218.53;;;16.95;59.67
43488;BME280;29078;41.932;25.554;2023-04-04T11:39:08;98215.88;;;16.95;59.34
43488;BME280;29078;41.932;25.554;2023-04-04T11:44:25;98239.38;;;16.98;59.46
43488;BME280;29078;41.932;25.554;2023-04-04T11:47:13;98214.78;;;16.91;58.47
43488;BME280;29078;41.932;25.554;2023-04-04T11:49:45;98211.84;;;16.92;59.22
43488;BME280;29078;41.932;25.554;2023-04-04T11:54:40;98213.41;;;16.88;58.99
43488;BME280;29078;41.932;25.554;2023-04-04T11:57:14;98185.50;;;16.69;58.85
43488;BME280;29078;41.932;25.554;2023-04-04T11:59:50;98212.06;;;16.86;58.51
43488;BME280;29078;41.932;25.554;2023-04-04T12:02:20;98208.31;;;16.87;58.78
43488;BME280;29078;41.932;25.554;2023-04-04T12:04:47;98084.94;;;16.15;59.17
43488;BME280;29078;41.932;25.554;2023-04-04T12:07:13;98206.56;;;16.97;59.31
43488;BME280;29078;41.932;25.554;2023-04-04T12:09:41;98059.06;;;16.11;59.38
43488;BME280;29078;41.932;25.554;2023-04-04T12:12:11;98086.88;;;16.20;59.46
43488;BME280;29078;41.932;25.554;2023-04-04T12:14:38;98197.97;;;16.90;59.74
43488;BME280;29078;41.932;25.554;2023-04-04T12:17:04;98150.09;;;16.51;59.87
43488;BME280;29078;41.932;25.554;2023-04-04T12:19:30;98193.84;;;16.77;60.27
43488;BME280;29078;41.932;25.554;2023-04-04T12:21:56;98121.84;;;16.29;60.56
43488;BME280;29078;41.932;25.554;2023-04-04T12:24:22;98195.34;;;16.68;60.94
43488;BME280;29078;41.932;25.554;2023-04-04T12:26:50;98189.22;;;16.68;60.97
43488;BME280;29078;41.932;25.554;2023-04-04T12:29:17;98165.03;;;16.52;60.95
43488;BME280;29078;41.932;25.554;2023-04-04T12:31:45;98168.75;;;16.51;61.57
43488;BME280;29078;41.932;25.554;2023-04-04T12:34:23;98186.97;;;16.60;61.42
43488;BME280;29078;41.932;25.554;2023-04-04T12:36:54;98071.09;;;15.70;61.42
43488;BME280;29078;41.932;25.554;2023-04-04T12:39:21;98188.66;;;16.44;61.57
43488;BME280;29078;41.932;25.554;2023-04-04T12:42:00;98183.56;;;16.42;62.10
43488;BME280;29078;41.932;25.554;2023-04-04T12:44:37;98183.06;;;16.45;61.85
43488;BME280;29078;41.932;25.554;2023-04-04T12:47:05;98179.84;;;16.43;62.76
43488;BME280;29078;41.932;25.554;2023-04-04T12:49:39;98169.28;;;16.32;62.64
43488;BME280;29078;41.932;25.554;2023-04-04T12:52:06;98195.63;;;16.50;62.89
43488;BME280;29078;41.932;25.554;2023-04-04T12:54:39;97953.09;;;14.82;62.96
43488;BME280;29078;41.932;25.554;2023-04-04T12:57:05;98204.69;;;16.49;63.48
43488;BME280;29078;41.932;25.554;2023-04-04T12:59:34;98202.59;;;16.51;63.54
43488;BME280;29078;41.932;25.554;2023-04-04T13:02:00;98207.03;;;16.45;63.31
43488;BME280;29078;41.932;25.554;2023-04-04T13:04:27;98198.09;;;16.35;63.30
43488;BME280;29078;41.932;25.554;2023-04-04T13:06:52;98204.72;;;16.32;63.84
43488;BME280;29078;41.932;25.554;2023-04-04T13:09:19;98210.06;;;16.32;64.26